Keller, WA (99140)

11:43 PM PDT on October 22, 2014 (GMT -0700)
RAWS NESPELEM WA US | Change Station
CLOSE
Current Station
Personal Weather Station
Location: Elmer City, WA
Elevation: 1899 ft
Nearby Weather Stations

Elev 1899 ft 48.14 °N, 118.97 °W | Updated 46 minutes ago

Mostly Cloudy
Mostly Cloudy
56 °F
Feels Like 56 °F
N
18
Wind Variable Wind from SSE
Gusts 30.0 mph

Today
High -- | Low -- °F
--% Chance of Precip.
Yesterday
High -- | Low -- °F
Precip. -- in
7:24 AM 5:52 PM
Waning Crescent, 0% visible
Pressure 29.74 in
Visibility 10.0 miles
Clouds Overcast 5500 ft
Dew Point 48 °F
Humidity 75%
Rainfall 0.86 in
Snow Depth Not available.
UV 0 out of 12
Pollen 1.10 out of 12
Air Quality Not available.
Flu Activity Sporadic
SPECI KSKA 230634Z AUTO 14013G18KT 10SM OVC055 11/08 A2974 RMK AO2

More Conditions Fewer Conditions

Pressure 29.74 in
Visibility 10.0 miles
Clouds Overcast 5500 ft
Dew Point 48 °F
Humidity 75%
Rainfall 0.86 in
Snow Depth Not available.
UV 0 out of 12
Pollen 1.10 out of 12
Air Quality Not available.
Flu Activity Sporadic
SPECI KSKA 230634Z AUTO 14013G18KT 10SM OVC055 11/08 A2974 RMK AO2

More Conditions Fewer Conditions

10-Day Weather Forecast

Almanac

Astronomy

Oct. 22, 2014 Rise Set
Actual Time 7:24 AM PDT 5:52 PM PDT
Civil Twilight 6:52 AM PDT 6:24 PM PDT
Nautical Twilight 6:16 AM PDT 7:00 PM PDT
Astronomical Twilight 5:40 AM PDT 7:36 PM PDT
Moon 6:04 AM PDT (10/22) 5:25 PM PDT (10/22)
Length of Visible Light 11h 31m
Length of Day
10h 28m
Tomorrow will be 3m 18s shorter.
Waning Crescent, 0% of the Moon is Illuminated
Oct 23
Waning Crescent
Oct 23
New
Oct 30
First Quarter
Nov 6
Full
Nov 14
Last Quarter

Community

WunderPhotos

Upload Photos

1,764,194 photos uploaded!

Nearby

Snow Depth

Station Depth Elevation
Moses Mountain 0 in 5300 ft
Quartz Peak 1 in 4700 ft
Bunchgrass Meadow 0 in 5000 ft
Pope Ridge 1 in 3540 ft
Trough 0 in 5300 ft

Earthquake Activity

City Distance Mag. Time & Date
No recent earthquake activity has been reported nearby.
Minimum magnitude displayed is 2.5.

Coastal Water Temperatures

Place Temperature
No Stations Reporting

Nearby Weather Stations